createdAt,value
2022-08-26T00:01:14.925Z,59.57
2022-08-26T00:06:16.368Z,60.13
2022-08-26T00:11:26.334Z,59.22
2022-08-26T00:16:29.165Z,59.51
2022-08-26T00:21:30.597Z,59.45
2022-08-26T00:26:34.650Z,59.59
2022-08-26T00:31:36.140Z,59.98
2022-08-26T00:36:39.608Z,60.22
2022-08-26T00:41:42.204Z,59.78
2022-08-26T00:46:46.943Z,59.70
2022-08-26T00:51:53.373Z,60.12
2022-08-26T00:57:00.347Z,59.72
2022-08-26T01:02:02.828Z,59.65
2022-08-26T01:07:04.495Z,59.78
2022-08-26T01:12:05.948Z,59.85
2022-08-26T01:17:08.144Z,59.56
2022-08-26T01:22:20.289Z,59.51
2022-08-26T01:27:22.908Z,59.71
2022-08-26T01:32:25.645Z,59.55
2022-08-26T01:37:29.178Z,60.25
2022-08-26T01:42:30.640Z,60.20
2022-08-26T01:47:32.121Z,60.80
2022-08-26T01:52:33.533Z,60.14
2022-08-26T01:57:35.077Z,59.96
2022-08-26T02:02:37.034Z,59.90
2022-08-26T02:07:38.814Z,59.92
2022-08-26T02:12:40.217Z,59.92
2022-08-26T02:17:43.633Z,60.54
2022-08-26T02:22:45.380Z,60.08
2022-08-26T02:27:46.957Z,60.18
2022-08-26T02:32:49.640Z,60.13
2022-08-26T02:37:51.832Z,60.47
2022-08-26T02:42:56.970Z,60.93
2022-08-26T02:47:58.680Z,59.98
2022-08-26T02:53:01.353Z,60.70
2022-08-26T02:58:04.247Z,60.02
2022-08-26T03:03:05.698Z,59.99
2022-08-26T03:08:07.160Z,60.05
2022-08-26T03:13:08.660Z,59.86
2022-08-26T03:18:10.930Z,60.20
2022-08-26T03:23:12.966Z,60.72
2022-08-26T03:28:14.372Z,60.74
2022-08-26T03:33:20.081Z,60.08
2022-08-26T03:38:22.470Z,60.18
2022-08-26T03:43:26.657Z,60.36
2022-08-26T03:48:28.064Z,60.30
2022-08-26T03:53:29.496Z,60.27
2022-08-26T03:58:32.005Z,60.74
2022-08-26T04:03:52.021Z,60.52
2022-08-26T04:08:56.604Z,60.41
2022-08-26T04:13:59.418Z,60.44
2022-08-26T04:19:01.178Z,60.77
2022-08-26T04:24:03.596Z,60.06
2022-08-26T04:29:07.528Z,60.02
2022-08-26T04:34:11.060Z,60.14
2022-08-26T04:39:16.377Z,60.32
2022-08-26T04:44:17.791Z,60.32
2022-08-26T04:49:19.212Z,60.59
2022-08-26T04:54:20.655Z,60.29
2022-08-26T04:59:22.172Z,60.11
2022-08-26T05:04:23.662Z,59.97
2022-08-26T05:09:25.313Z,61.02
2022-08-26T05:14:26.713Z,62.19
2022-08-26T05:19:28.413Z,62.42
2022-08-26T05:24:30.124Z,61.96
2022-08-26T05:29:31.556Z,61.91
2022-08-26T05:34:32.985Z,61.38
2022-08-26T05:39:34.402Z,61.28
2022-08-26T05:44:54.009Z,61.13
2022-08-26T05:49:57.200Z,61.54
2022-08-26T05:54:58.595Z,60.89
2022-08-26T06:00:00.211Z,60.83
2022-08-26T06:05:02.476Z,60.88
2022-08-26T06:10:30.549Z,60.41
2022-08-26T06:15:26.485Z,60.61
2022-08-26T06:20:31.306Z,60.28
2022-08-26T06:25:40.050Z,60.66
2022-08-26T06:30:41.560Z,60.65
2022-08-26T06:35:43.464Z,60.55
2022-08-26T06:40:49.760Z,60.43
2022-08-26T06:45:51.840Z,60.25
2022-08-26T06:51:08.993Z,60.75
2022-08-26T06:56:10.475Z,60.77
2022-08-26T07:01:18.226Z,60.50
2022-08-26T07:06:21.324Z,60.15
2022-08-26T07:11:22.809Z,60.31
2022-08-26T07:16:25.724Z,60.15
2022-08-26T07:21:28.921Z,59.37
2022-08-26T07:26:31.625Z,59.05
2022-08-26T07:31:39.445Z,60.93
2022-08-26T07:36:44.437Z,60.78
2022-08-26T07:41:47.692Z,60.39
2022-08-26T07:46:53.267Z,61.04
2022-08-26T07:51:55.194Z,60.34
2022-08-26T07:56:56.633Z,59.99
2022-08-26T08:01:59.600Z,59.12
2022-08-26T08:07:01.040Z,59.07
2022-08-26T08:12:04.293Z,58.72
2022-08-26T08:17:05.918Z,58.62
2022-08-26T08:22:17.471Z,58.53
2022-08-26T08:27:23.774Z,59.13
2022-08-26T08:32:25.654Z,58.26
2022-08-26T08:37:27.403Z,58.31
2022-08-26T08:42:49.995Z,58.10
2022-08-26T08:47:54.764Z,58.30
2022-08-26T08:53:16.742Z,57.83
2022-08-26T08:58:51.328Z,57.43
2022-08-26T09:04:17.201Z,57.98
2022-08-26T09:09:31.828Z,57.94
2022-08-26T09:14:33.241Z,57.76
2022-08-26T09:20:09.484Z,57.75
2022-08-26T09:25:12.658Z,58.19
2022-08-26T09:30:33.051Z,58.38
2022-08-26T09:35:41.858Z,58.73
2022-08-26T09:40:45.144Z,59.02
2022-08-26T09:45:50.811Z,59.06
2022-08-26T09:51:00.129Z,59.29
2022-08-26T09:56:17.484Z,59.31
2022-08-26T10:01:34.831Z,59.19
2022-08-26T10:06:54.568Z,59.37
2022-08-26T10:11:57.646Z,59.19
2022-08-26T10:17:01.991Z,59.57
2022-08-26T10:22:06.309Z,59.08
2022-08-26T10:27:15.164Z,59.74
2022-08-26T10:32:27.916Z,60.21
2022-08-26T10:37:37.734Z,60.20
2022-08-26T10:42:44.592Z,60.53
2022-08-26T10:47:48.708Z,60.59
2022-08-26T10:53:13.824Z,60.43
2022-08-26T10:58:27.561Z,60.76
2022-08-26T11:03:28.966Z,60.72
2022-08-26T11:08:30.574Z,61.05
2022-08-26T11:13:56.865Z,60.93
2022-08-26T11:24:46.589Z,60.65
2022-08-26T11:30:29.892Z,60.19
2022-08-26T11:35:34.088Z,60.54
2022-08-26T11:40:40.380Z,60.17
2022-08-26T11:45:45.582Z,59.91
2022-08-26T11:51:08.462Z,59.65
2022-08-26T11:56:24.346Z,60.20
2022-08-26T12:01:48.934Z,60.22
2022-08-26T12:06:51.057Z,60.20
2022-08-26T12:11:54.009Z,60.16
2022-08-26T12:17:11.672Z,59.88
2022-08-26T12:22:23.637Z,60.37
2022-08-26T12:27:30.663Z,59.96
2022-08-26T12:32:32.743Z,59.88
2022-08-26T12:37:35.220Z,59.85
2022-08-26T12:42:41.197Z,59.41
2022-08-26T12:47:44.167Z,59.84
2022-08-26T12:53:03.695Z,59.69
2022-08-26T12:58:25.947Z,59.08
2022-08-26T13:03:45.288Z,58.90
2022-08-26T13:08:48.312Z,59.12
2022-08-26T13:13:53.884Z,59.10
2022-08-26T13:18:58.755Z,58.67
2022-08-26T13:24:14.820Z,59.05
2022-08-26T13:29:16.383Z,58.80
2022-08-26T13:34:21.012Z,58.72
2022-08-26T13:39:22.738Z,58.72
2022-08-26T13:44:24.415Z,58.59
2022-08-26T13:49:25.923Z,58.00
2022-08-26T13:54:27.466Z,58.46
2022-08-26T13:59:28.990Z,57.73
2022-08-26T14:04:30.487Z,57.85
2022-08-26T14:09:35.402Z,57.44
2022-08-26T14:14:39.385Z,57.66
2022-08-26T14:19:41.127Z,57.08
2022-08-26T14:24:42.712Z,56.87
2022-08-26T14:29:44.274Z,57.07
2022-08-26T14:34:45.783Z,56.96
2022-08-26T14:39:47.315Z,56.98
2022-08-26T14:44:51.739Z,57.13
2022-08-26T14:49:53.267Z,57.18
2022-08-26T14:54:54.840Z,57.14
2022-08-26T14:59:57.285Z,57.29
2022-08-26T15:04:58.779Z,56.58
2022-08-26T15:10:00.327Z,57.02
2022-08-26T15:15:01.899Z,56.74
2022-08-26T15:20:04.531Z,56.89
2022-08-26T15:25:06.766Z,56.90
2022-08-26T15:30:09.999Z,57.05
2022-08-26T15:35:11.559Z,56.54
2022-08-26T15:40:13.183Z,56.40
2022-08-26T15:45:25.867Z,56.67
2022-08-26T15:50:28.933Z,56.47
2022-08-26T15:55:30.438Z,56.35
2022-08-26T16:00:31.931Z,56.11
2022-08-26T16:05:39.001Z,55.66
2022-08-26T16:10:46.589Z,55.56
2022-08-26T16:15:50.927Z,55.52
2022-08-26T16:21:08.770Z,56.00
2022-08-26T16:26:16.713Z,56.23
2022-08-26T16:31:18.286Z,56.14
2022-08-26T16:36:19.911Z,56.21
2022-08-26T16:41:21.627Z,55.98
2022-08-26T16:46:25.524Z,56.23
2022-08-26T16:51:27.562Z,55.95
2022-08-26T16:56:33.715Z,56.03
2022-08-26T17:01:36.018Z,56.05
2022-08-26T17:06:38.124Z,55.91
2022-08-26T17:11:39.622Z,55.87
2022-08-26T17:16:41.131Z,56.11
2022-08-26T17:21:42.671Z,56.54
2022-08-26T17:26:44.337Z,56.25
2022-08-26T17:31:49.844Z,56.69
2022-08-26T17:36:51.241Z,56.40
2022-08-26T17:41:52.646Z,56.58
2022-08-26T17:46:54.706Z,56.36
2022-08-26T17:51:58.345Z,56.57
2022-08-26T17:57:00.907Z,56.33
2022-08-26T18:02:02.355Z,56.73
2022-08-26T18:07:03.878Z,56.34
2022-08-26T18:12:05.416Z,56.46
2022-08-26T18:17:07.679Z,56.92
2022-08-26T18:22:09.097Z,56.87
2022-08-26T18:27:16.973Z,56.57
2022-08-26T18:32:18.369Z,56.60
2022-08-26T18:37:19.773Z,56.65
2022-08-26T18:42:21.244Z,57.03
2022-08-26T18:47:22.769Z,57.22
2022-08-26T18:52:24.193Z,57.05
2022-08-26T18:57:25.634Z,56.85
2022-08-26T19:02:27.179Z,56.80
2022-08-26T19:07:34.580Z,57.10
2022-08-26T19:12:38.285Z,57.19
2022-08-26T19:17:39.876Z,57.04
2022-08-26T19:22:41.277Z,57.00
2022-08-26T19:27:42.749Z,57.38
2022-08-26T19:32:44.416Z,57.20
2022-08-26T19:37:45.928Z,57.62
2022-08-26T19:42:47.365Z,57.53
2022-08-26T19:47:48.760Z,57.54
2022-08-26T19:52:50.155Z,57.54
2022-08-26T19:57:54.560Z,57.60
2022-08-26T20:02:56.464Z,57.62
2022-08-26T20:07:57.909Z,57.73
2022-08-26T20:12:59.310Z,57.75
2022-08-26T20:18:00.736Z,58.08
2022-08-26T20:23:03.553Z,58.32
2022-08-26T20:28:05.191Z,58.14
2022-08-26T20:33:06.679Z,58.03
2022-08-26T20:38:10.396Z,58.04
2022-08-26T20:43:12.107Z,58.00
2022-08-26T20:48:13.608Z,58.15
2022-08-26T20:53:15.111Z,57.87
2022-08-26T20:58:16.627Z,58.10
2022-08-26T21:03:18.144Z,57.87
2022-08-26T21:08:19.631Z,58.54
2022-08-26T21:13:21.169Z,58.27
2022-08-26T21:18:22.678Z,58.34
2022-08-26T21:23:28.694Z,58.59
2022-08-26T21:28:30.950Z,58.19
2022-08-26T21:33:32.529Z,58.53
2022-08-26T21:38:34.299Z,58.37
2022-08-26T21:43:36.608Z,58.75
2022-08-26T21:48:39.046Z,58.85
2022-08-26T21:53:40.636Z,58.48
2022-08-26T21:58:42.170Z,58.46
2022-08-26T22:03:46.754Z,58.45
2022-08-26T22:08:49.066Z,59.04
2022-08-26T22:13:50.633Z,58.73
2022-08-26T22:18:53.314Z,58.67
2022-08-26T22:23:56.236Z,58.65
2022-08-26T22:28:59.876Z,58.24
2022-08-26T22:34:01.623Z,58.48
2022-08-26T22:39:04.096Z,58.26
2022-08-26T22:44:05.594Z,58.67
2022-08-26T22:49:08.560Z,58.31
2022-08-26T22:54:10.171Z,58.43
2022-08-26T22:59:11.930Z,58.04
2022-08-26T23:04:13.464Z,58.03
2022-08-26T23:09:17.028Z,58.15
2022-08-26T23:14:18.670Z,58.35
2022-08-26T23:19:21.601Z,58.15
2022-08-26T23:24:23.290Z,58.37
2022-08-26T23:29:24.803Z,58.16
2022-08-26T23:34:44.547Z,58.63
2022-08-26T23:39:47.431Z,58.68
2022-08-26T23:44:49.050Z,58.37
2022-08-26T23:49:51.366Z,58.41
2022-08-26T23:54:52.936Z,58.28
2022-08-26T23:59:54.426Z,58.74
